Leon, Kansas
Current Conditions -  °F | °C
As of 4:35 PM on Thursday 23 Oct 2014 (Local Time) from KEQA Reporting Station
Broken Clouds Broken Clouds  
Wind Chill: 72°   Ceiling: 2100
Heat Index: 72°   Visibility: 10mi
Dew Point: 61°   Wind: 3mph
Humidity: 69%   Direction: 190°S
Pressure: 30.05"   Gusts: NA
Location:  37.69°N, 96.78°W
Report Text: KEQA 232135Z AUTO 19003KT 10SM BKN021 22/16 A3005 RMK AO2
Loading
Personal Weather Stations






























Interactive Weather Map
Tropical Storm Tracking
New forecast layout! Learn more

10-Day Weather Forecast

Advertisements
Track Severe Weather on mobile